createdAt,value
2022-12-08T00:01:42.607Z,100101.97
2022-12-08T00:04:11.062Z,100104.94
2022-12-08T00:07:01.269Z,100097.41
2022-12-08T00:09:32.041Z,100092.09
2022-12-08T00:12:10.358Z,100087.22
2022-12-08T00:14:45.320Z,100092.25
2022-12-08T00:17:16.184Z,100088.81
2022-12-08T00:19:45.145Z,100089.59
2022-12-08T00:22:14.767Z,100087.69
2022-12-08T00:24:45.584Z,100088.81
2022-12-08T00:27:15.921Z,100085.69
2022-12-08T00:29:45.662Z,100095.06
2022-12-08T00:32:13.887Z,100087.53
2022-12-08T00:34:41.544Z,100092.09
2022-12-08T00:37:09.590Z,100081.44
2022-12-08T00:39:37.238Z,100092.25
2022-12-08T00:42:14.338Z,100091.16
2022-12-08T00:44:46.590Z,100098.84
2022-12-08T00:47:15.275Z,100105.72
2022-12-08T00:49:43.020Z,100106.19
2022-12-08T00:52:12.732Z,100113.09
2022-12-08T00:54:40.327Z,100113.09
2022-12-08T00:57:08.367Z,100111.38
2022-12-08T00:59:36.008Z,100111.66
2022-12-08T01:02:04.213Z,100110.13
2022-12-08T01:04:50.515Z,100101.00
2022-12-08T01:07:18.524Z,100103.84
2022-12-08T01:09:47.707Z,100101.16
2022-12-08T01:12:15.704Z,100104.63
2022-12-08T01:14:43.405Z,100093.66
2022-12-08T01:17:11.420Z,100093.38
2022-12-08T01:19:39.079Z,100091.47
2022-12-08T01:22:07.141Z,100091.94
2022-12-08T01:24:35.579Z,100091.94
2022-12-08T01:27:03.480Z,100090.84
2022-12-08T01:29:31.121Z,100081.44
2022-12-08T01:31:59.050Z,100084.56
2022-12-08T01:34:26.651Z,100078.75
2022-12-08T01:36:54.941Z,100077.22
2022-12-08T01:39:37.853Z,100079.38
2022-12-08T01:42:06.014Z,100087.38
2022-12-08T01:44:33.420Z,100083.16
2022-12-08T01:47:01.426Z,100078.91
2022-12-08T01:49:34.299Z,100074.06
2022-12-08T01:52:18.539Z,100063.88
2022-12-08T01:54:59.835Z,100061.22
2022-12-08T01:57:53.018Z,100061.69
2022-12-08T02:00:22.906Z,100056.34
2022-12-08T02:03:20.603Z,100061.53
2022-12-08T02:05:48.837Z,100056.66
2022-12-08T02:08:17.883Z,100054.00
2022-12-08T02:10:52.357Z,100057.44
2022-12-08T02:13:23.300Z,100058.22
2022-12-08T02:16:27.530Z,100060.41
2022-12-08T02:19:33.648Z,100055.56
2022-12-08T02:22:20.488Z,100057.75
2022-12-08T02:25:17.769Z,100049.13
2022-12-08T02:28:03.665Z,100044.75
2022-12-08T02:30:54.646Z,100044.75
2022-12-08T02:34:17.568Z,100052.41
2022-12-08T02:37:11.493Z,100052.25
2022-12-08T02:39:42.729Z,100051.78
2022-12-08T02:42:45.133Z,100056.81
2022-12-08T02:45:55.535Z,100064.34
2022-12-08T02:48:28.866Z,100062.31
2022-12-08T02:50:56.758Z,100059.03
2022-12-08T02:53:24.969Z,100060.91
2022-12-08T02:56:06.394Z,100066.69
2022-12-08T02:58:54.968Z,100051.97
2022-12-08T03:01:34.771Z,100048.19
2022-12-08T03:04:17.663Z,100046.81
2022-12-08T03:07:02.715Z,100037.88
2022-12-08T03:09:56.733Z,100036.47
2022-12-08T03:12:56.329Z,100034.41
2022-12-08T03:15:24.857Z,100033.78
2022-12-08T03:17:58.414Z,100034.75
2022-12-08T03:20:30.173Z,100038.78
2022-12-08T03:23:02.132Z,100039.25
2022-12-08T03:25:34.477Z,100032.22
2022-12-08T03:28:02.272Z,100015.09
2022-12-08T03:30:34.894Z,100013.56
2022-12-08T03:33:23.658Z,100024.84
2022-12-08T03:35:53.619Z,100021.25
2022-12-08T03:38:21.935Z,100016.53
2022-12-08T03:41:09.864Z,100030.03
2022-12-08T03:43:38.328Z,100030.66
2022-12-08T03:46:06.493Z,100028.00
2022-12-08T03:48:34.358Z,100026.91
2022-12-08T03:51:02.502Z,100023.13
2022-12-08T03:53:30.224Z,100014.03
2022-12-08T03:55:58.382Z,100012.94
2022-12-08T03:58:25.937Z,100024.06
2022-12-08T04:00:53.915Z,100014.19
2022-12-08T04:03:21.649Z,100007.44
2022-12-08T04:05:49.604Z,100014.50
2022-12-08T04:08:17.316Z,100004.94
2022-12-08T04:10:45.271Z,100001.19
2022-12-08T04:13:12.820Z,99990.06
2022-12-08T04:15:45.239Z,99992.28
2022-12-08T04:18:13.585Z,99997.75
2022-12-08T04:20:46.371Z,99996.16
2022-12-08T04:23:14.036Z,99988.50
2022-12-08T04:25:42.087Z,99992.09
2022-12-08T04:28:09.791Z,100001.03
2022-12-08T04:30:37.804Z,99992.41
2022-12-08T04:33:06.030Z,99997.09
2022-12-08T04:35:33.989Z,99992.69
2022-12-08T04:38:01.933Z,99989.41
2022-12-08T04:40:29.810Z,99984.97
2022-12-08T04:42:57.385Z,99986.25
2022-12-08T04:45:25.339Z,99978.72
2022-12-08T04:47:53.033Z,99981.06
2022-12-08T04:50:20.975Z,99988.25
2022-12-08T04:52:48.578Z,99987.78
2022-12-08T04:55:16.705Z,99979.78
2022-12-08T04:57:44.310Z,99963.47
2022-12-08T05:00:13.709Z,99962.41
2022-12-08T05:02:41.514Z,99962.84
2022-12-08T05:05:10.273Z,99960.66
2022-12-08T05:07:38.455Z,99950.44
2022-12-08T05:10:07.606Z,99954.69
2022-12-08T05:12:36.121Z,99939.47
2022-12-08T05:15:04.605Z,99931.78
2022-12-08T05:17:32.100Z,99926.44
2022-12-08T05:20:00.046Z,99924.91
2022-12-08T05:22:27.694Z,99928.03
2022-12-08T05:24:55.628Z,99938.69
2022-12-08T05:27:23.151Z,99938.84
2022-12-08T05:29:51.027Z,99929.28
2022-12-08T05:32:18.538Z,99938.41
2022-12-08T05:34:46.594Z,99942.47
2022-12-08T05:37:14.266Z,99938.25
2022-12-08T05:39:42.136Z,99945.94
2022-12-08T05:42:09.748Z,99948.13
2022-12-08T05:44:37.842Z,99958.78
2022-12-08T05:47:05.575Z,99953.47
2022-12-08T05:49:33.946Z,99959.59
2022-12-08T05:52:02.061Z,99953.47
2022-12-08T05:54:30.509Z,99957.69
2022-12-08T05:56:58.283Z,99955.81
2022-12-08T05:59:26.320Z,99953.94
2022-12-08T06:01:53.933Z,99950.16
2022-12-08T06:04:22.294Z,99949.84
2022-12-08T06:06:50.116Z,99951.41
2022-12-08T06:09:18.044Z,99956.88
2022-12-08T06:11:47.239Z,99956.09
2022-12-08T06:14:15.042Z,99951.56
2022-12-08T06:16:42.715Z,99946.84
2022-12-08T06:19:10.785Z,99945.94
2022-12-08T06:21:38.532Z,99944.38
2022-12-08T06:24:06.725Z,99946.88
2022-12-08T06:26:36.190Z,99935.78
2022-12-08T06:29:05.184Z,99944.72
2022-12-08T06:31:32.847Z,99942.22
2022-12-08T06:34:00.959Z,99930.47
2022-12-08T06:36:28.805Z,99940.66
2022-12-08T06:38:57.292Z,99957.75
2022-12-08T06:41:25.542Z,99960.41
2022-12-08T06:43:57.627Z,99964.63
2022-12-08T06:46:25.559Z,99969.66
2022-12-08T06:48:54.372Z,99976.25
2022-12-08T06:51:25.596Z,99974.50
2022-12-08T06:53:53.694Z,99969.31
2022-12-08T06:56:23.951Z,99979.34
2022-12-08T06:58:52.958Z,99978.38
2022-12-08T07:01:21.062Z,99984.63
2022-12-08T07:03:49.195Z,99990.44
2022-12-08T07:06:25.421Z,99989.47
2022-12-08T07:08:53.377Z,99993.88
2022-12-08T07:11:22.363Z,99977.56
2022-12-08T07:13:51.164Z,99975.66
2022-12-08T07:16:19.037Z,99964.22
2022-12-08T07:18:47.157Z,99958.72
2022-12-08T07:21:16.152Z,99963.06
2022-12-08T07:23:50.239Z,99956.44
2022-12-08T07:26:21.974Z,99962.69
2022-12-08T07:28:49.915Z,99966.16
2022-12-08T07:31:24.945Z,99962.88
2022-12-08T07:33:53.863Z,99960.66
2022-12-08T07:36:22.919Z,99958.13
2022-12-08T07:38:53.414Z,99956.50
2022-12-08T07:41:25.489Z,99956.00
2022-12-08T07:43:54.421Z,99944.50
2022-12-08T07:46:25.362Z,99951.22
2022-12-08T07:48:55.202Z,99952.91
2022-12-08T07:51:24.913Z,99962.63
2022-12-08T07:53:54.594Z,99956.44
2022-12-08T07:56:23.619Z,99955.16
2022-12-08T07:58:51.999Z,99949.94
2022-12-08T08:01:31.890Z,99941.41
2022-12-08T08:04:04.693Z,99935.88
2022-12-08T08:06:33.897Z,99935.19
2022-12-08T08:09:01.790Z,99930.66
2022-12-08T08:11:29.516Z,99926.97
2022-12-08T08:13:57.817Z,99922.44
2022-12-08T08:16:25.453Z,99919.56
2022-12-08T08:18:53.821Z,99914.03
2022-12-08T08:21:45.058Z,99911.13
2022-12-08T08:24:11.105Z,99906.38
2022-12-08T08:26:38.714Z,99910.41
2022-12-08T08:29:07.210Z,99903.59
2022-12-08T08:31:34.949Z,99906.38
2022-12-08T08:34:06.375Z,99892.38
2022-12-08T08:36:35.433Z,99884.78
2022-12-08T08:39:04.586Z,99892.59
2022-12-08T08:41:32.378Z,99904.88
2022-12-08T08:44:00.268Z,99906.53
2022-12-08T08:46:28.133Z,99915.13
2022-12-08T08:48:56.366Z,99931.41
2022-12-08T08:51:24.018Z,99933.84
2022-12-08T08:53:51.976Z,99946.22
2022-12-08T08:56:20.014Z,99934.53
2022-12-08T08:58:49.568Z,99926.63
2022-12-08T09:01:24.064Z,99932.09
2022-12-08T09:03:53.334Z,99921.50
2022-12-08T09:06:21.545Z,99911.56
2022-12-08T09:08:50.092Z,99898.66
2022-12-08T09:11:18.813Z,99903.00
2022-12-08T09:13:51.949Z,99895.53
2022-12-08T09:16:20.067Z,99895.28
2022-12-08T09:18:51.478Z,99885.94
2022-12-08T09:21:23.779Z,99862.72
2022-12-08T09:23:57.653Z,99863.63
2022-12-08T09:26:28.096Z,99864.50
2022-12-08T09:28:57.173Z,99862.59
2022-12-08T09:31:25.810Z,99853.78
2022-12-08T09:33:53.830Z,99836.19
2022-12-08T09:36:21.698Z,99823.91
2022-12-08T09:38:51.200Z,99817.09
2022-12-08T09:41:48.335Z,99826.34
2022-12-08T09:44:29.101Z,99817.91
2022-12-08T09:46:58.743Z,99815.66
2022-12-08T09:49:47.192Z,99801.16
2022-12-08T09:52:58.058Z,99795.91
2022-12-08T09:55:57.739Z,99797.56
2022-12-08T09:58:28.148Z,99800.00
2022-12-08T10:00:56.574Z,99787.09
2022-12-08T10:03:29.848Z,99786.38
2022-12-08T10:06:50.971Z,99785.03
2022-12-08T10:09:57.739Z,99766.72
2022-12-08T10:12:47.778Z,99764.72
2022-12-08T10:15:18.090Z,99771.97
2022-12-08T10:17:49.608Z,99781.25
2022-12-08T10:20:29.397Z,99771.31
2022-12-08T10:23:12.669Z,99789.53
2022-12-08T10:25:53.562Z,99787.84
2022-12-08T10:28:21.471Z,99802.59
2022-12-08T10:30:49.082Z,99793.47
2022-12-08T10:33:20.883Z,99785.69
2022-12-08T10:35:54.681Z,99783.59
2022-12-08T10:38:31.677Z,99783.81
2022-12-08T10:41:20.847Z,99772.69
2022-12-08T10:43:58.224Z,99748.94
2022-12-08T10:46:28.447Z,99732.44
2022-12-08T10:49:11.973Z,99725.53
2022-12-08T10:51:43.581Z,99718.72
2022-12-08T10:54:38.726Z,99715.19
2022-12-08T10:57:06.283Z,99716.75
2022-12-08T10:59:34.612Z,99717.84
2022-12-08T11:02:02.234Z,99721.63
2022-12-08T11:04:38.370Z,99720.75
2022-12-08T11:07:08.844Z,99728.69
2022-12-08T11:09:49.118Z,99719.66
2022-12-08T11:12:22.070Z,99721.16
2022-12-08T11:15:05.314Z,99716.81
2022-12-08T11:17:40.668Z,99716.81
2022-12-08T11:20:11.544Z,99712.94
2022-12-08T11:22:56.567Z,99713.34
2022-12-08T11:25:27.382Z,99701.44
2022-12-08T11:28:00.649Z,99701.75
2022-12-08T11:30:38.934Z,99702.56
2022-12-08T11:33:28.639Z,99687.53
2022-12-08T11:36:10.282Z,99688.19
2022-12-08T11:38:46.442Z,99673.81
2022-12-08T11:41:26.315Z,99665.13
2022-12-08T11:44:10.272Z,99666.09
2022-12-08T11:47:01.131Z,99649.38
2022-12-08T11:49:39.531Z,99646.44
2022-12-08T11:52:29.472Z,99649.22
2022-12-08T11:55:19.006Z,99660.34
2022-12-08T11:57:48.703Z,99657.91
2022-12-08T12:00:17.236Z,99646.44
2022-12-08T12:02:54.755Z,99644.13
2022-12-08T12:06:38.342Z,99649.56
2022-12-08T12:09:39.211Z,99645.09
2022-12-08T12:12:25.276Z,99657.44
2022-12-08T12:15:08.058Z,99655.22
2022-12-08T12:18:25.642Z,99656.84
2022-12-08T12:21:16.368Z,99661.84
2022-12-08T12:24:26.073Z,99659.94
2022-12-08T12:27:08.472Z,99655.75
2022-12-08T12:29:38.935Z,99650.72
2022-12-08T12:32:10.524Z,99633.09
2022-12-08T12:34:52.348Z,99635.78
2022-12-08T12:37:36.347Z,99636.91
2022-12-08T12:40:16.259Z,99649.16
2022-12-08T12:42:56.093Z,99661.44
2022-12-08T12:45:33.188Z,99658.31
2022-12-08T12:48:01.049Z,99661.25
2022-12-08T12:50:35.022Z,99661.25
2022-12-08T12:53:15.844Z,99658.22
2022-12-08T12:55:46.327Z,99653.22
2022-12-08T12:58:32.141Z,99649.41
2022-12-08T13:01:12.148Z,99646.72
2022-12-08T13:04:08.464Z,99631.13
2022-12-08T13:06:46.113Z,99619.72
2022-12-08T13:09:28.140Z,99619.81
2022-12-08T13:12:01.124Z,99614.13
2022-12-08T13:14:49.516Z,99608.00
2022-12-08T13:17:37.342Z,99606.56
2022-12-08T13:20:17.511Z,99607.25
2022-12-08T13:22:54.758Z,99612.94
2022-12-08T13:25:41.146Z,99627.75
2022-12-08T13:28:31.101Z,99637.34
2022-12-08T13:31:01.953Z,99633.09
2022-12-08T13:33:40.905Z,99631.13
2022-12-08T13:36:26.529Z,99629.22
2022-12-08T13:38:58.203Z,99639.94
2022-12-08T13:41:58.518Z,99639.16
2022-12-08T13:57:28.751Z,99625.78
2022-12-08T14:00:02.712Z,99610.84
2022-12-08T14:02:47.876Z,99597.13
2022-12-08T14:05:40.527Z,99597.56
2022-12-08T14:09:00.067Z,99603.44
2022-12-08T14:11:35.956Z,99612.59
2022-12-08T14:14:32.514Z,99620.38
2022-12-08T14:17:16.483Z,99620.03
2022-12-08T14:19:53.597Z,99618.13
2022-12-08T14:22:21.936Z,99620.78
2022-12-08T14:24:55.355Z,99618.13
2022-12-08T14:27:26.628Z,99623.47
2022-12-08T14:30:01.612Z,99628.06
2022-12-08T14:32:30.223Z,99643.31
2022-12-08T14:35:08.953Z,99650.22
2022-12-08T14:37:50.709Z,99660.94
2022-12-08T14:40:38.486Z,99656.41
2022-12-08T14:43:09.166Z,99670.19
2022-12-08T14:45:42.616Z,99674.44
2022-12-08T14:48:21.290Z,99675.91
2022-12-08T14:50:54.898Z,99677.47
2022-12-08T14:53:24.293Z,99676.13
2022-12-08T14:55:52.420Z,99673.88
2022-12-08T14:58:30.311Z,99662.16
2022-12-08T15:01:00.208Z,99657.69
2022-12-08T15:03:31.534Z,99646.72
2022-12-08T15:06:06.291Z,99641.94
2022-12-08T15:08:50.808Z,99633.66
2022-12-08T15:11:30.152Z,99628.81
2022-12-08T15:13:58.826Z,99629.69
2022-12-08T15:16:36.343Z,99615.28
2022-12-08T15:19:40.895Z,99608.47
2022-12-08T15:22:22.997Z,99601.97
2022-12-08T15:24:50.828Z,99609.31
2022-12-08T15:27:21.776Z,99608.56
2022-12-08T15:29:51.381Z,99610.09
2022-12-08T15:32:24.237Z,99604.41
2022-12-08T15:34:52.304Z,99618.59
2022-12-08T15:37:26.680Z,99620.91
2022-12-08T15:39:54.978Z,99625.16
2022-12-08T15:42:22.626Z,99615.56
2022-12-08T15:44:51.863Z,99612.19
2022-12-08T15:47:24.747Z,99609.53
2022-12-08T15:49:53.474Z,99612.63
2022-12-08T15:52:25.039Z,99620.31
2022-12-08T15:54:53.255Z,99610.41
2022-12-08T15:57:59.153Z,99620.31
2022-12-08T16:00:55.558Z,99621.88
2022-12-08T16:09:40.753Z,99636.72
2022-12-08T16:13:40.434Z,99631.72
2022-12-08T16:18:24.107Z,99653.03
2022-12-08T16:21:09.754Z,99654.81
2022-12-08T16:23:44.607Z,99651.63
2022-12-08T16:29:20.461Z,99645.72
2022-12-08T16:31:49.332Z,99641.19
2022-12-08T16:34:17.339Z,99638.94
2022-12-08T16:36:44.951Z,99640.13
2022-12-08T16:39:14.625Z,99635.22
2022-12-08T16:42:00.691Z,99635.22
2022-12-08T16:44:28.678Z,99632.09
2022-12-08T16:46:56.262Z,99645.94
2022-12-08T16:49:25.108Z,99640.59
2022-12-08T16:51:52.868Z,99641.34
2022-12-08T16:54:20.747Z,99641.69
2022-12-08T16:56:48.360Z,99651.63
2022-12-08T16:59:16.161Z,99651.19
2022-12-08T17:01:43.731Z,99655.75
2022-12-08T17:04:31.134Z,99650.22
2022-12-08T17:06:59.572Z,99646.31
2022-12-08T17:09:28.607Z,99651.59
2022-12-08T17:12:01.827Z,99655.31
2022-12-08T17:14:36.332Z,99663.56
2022-12-08T17:17:04.271Z,99676.50
2022-12-08T17:19:33.146Z,99681.75
2022-12-08T17:22:02.300Z,99677.97
2022-12-08T17:24:30.648Z,99681.06
2022-12-08T17:27:04.073Z,99680.22
2022-12-08T17:29:33.378Z,99690.47
2022-12-08T17:32:01.419Z,99687.81
2022-12-08T17:34:29.568Z,99695.03
2022-12-08T17:36:57.316Z,99700.38
2022-12-08T17:39:25.812Z,99692.00
2022-12-08T17:41:53.546Z,99688.91
2022-12-08T17:44:21.801Z,99685.56
2022-12-08T17:46:52.961Z,99680.97
2022-12-08T17:49:29.766Z,99690.22
2022-12-08T17:52:01.278Z,99688.66
2022-12-08T17:54:30.449Z,99689.34
2022-12-08T17:56:58.858Z,99700.81
2022-12-08T17:59:28.826Z,99695.47
2022-12-08T18:01:58.684Z,99695.13
2022-12-08T18:04:28.145Z,99704.38
2022-12-08T18:06:58.333Z,99700.13
2022-12-08T18:09:26.408Z,99707.81
2022-12-08T18:11:53.987Z,99702.47
2022-12-08T18:14:22.041Z,99700.94
2022-12-08T18:16:49.666Z,99704.28
2022-12-08T18:19:18.589Z,99711.50
2022-12-08T18:21:46.378Z,99704.28
2022-12-08T18:24:22.505Z,99699.38
2022-12-08T18:26:52.983Z,99690.22
2022-12-08T18:29:23.161Z,99700.56
2022-12-08T18:31:51.866Z,99709.41
2022-12-08T18:34:20.526Z,99701.81
2022-12-08T18:36:48.816Z,99711.41
2022-12-08T18:39:32.560Z,99717.84
2022-12-08T18:42:22.886Z,99712.41
2022-12-08T18:44:52.848Z,99706.16
2022-12-08T18:47:20.557Z,99710.75
2022-12-08T18:49:48.778Z,99715.31
2022-12-08T18:52:20.423Z,99716.75
2022-12-08T18:55:06.196Z,99719.78
2022-12-08T18:57:38.916Z,99707.63
2022-12-08T19:00:10.114Z,99722.13
2022-12-08T19:02:38.922Z,99723.25
2022-12-08T19:05:09.155Z,99723.25
2022-12-08T19:07:37.661Z,99728.25
2022-12-08T19:10:07.127Z,99733.47
2022-12-08T19:12:35.021Z,99737.72
2022-12-08T19:15:03.245Z,99736.84
2022-12-08T19:17:31.091Z,99732.94
2022-12-08T19:19:59.157Z,99735.84
2022-12-08T19:22:26.767Z,99727.84
2022-12-08T19:24:54.735Z,99736.53
2022-12-08T19:27:22.448Z,99734.97
2022-12-08T19:29:50.691Z,99729.97
2022-12-08T19:32:18.395Z,99718.50
2022-12-08T19:34:46.632Z,99716.94
2022-12-08T19:37:15.373Z,99720.72
2022-12-08T19:40:01.997Z,99719.06
2022-12-08T19:42:48.431Z,99718.06
2022-12-08T19:45:21.675Z,99715.53
2022-12-08T19:47:49.421Z,99709.97
2022-12-08T19:50:37.000Z,99709.75
2022-12-08T19:53:14.973Z,99715.22
2022-12-08T19:55:44.428Z,99714.09
2022-12-08T19:58:12.273Z,99716.34
2022-12-08T20:00:41.465Z,99712.56
2022-12-08T20:03:10.776Z,99715.44
2022-12-08T20:05:41.911Z,99707.78
2022-12-08T20:08:10.080Z,99720.66
2022-12-08T20:10:42.627Z,99725.13
2022-12-08T20:13:29.906Z,99715.09
2022-12-08T20:15:58.485Z,99718.75
2022-12-08T20:18:26.218Z,99727.13
2022-12-08T20:20:54.244Z,99725.56
2022-12-08T20:23:22.226Z,99730.03
2022-12-08T20:25:50.358Z,99734.88
2022-12-08T20:28:19.135Z,99733.78
2022-12-08T20:30:49.075Z,99736.47
2022-12-08T20:33:19.087Z,99733.78
2022-12-08T20:35:48.146Z,99726.88
2022-12-08T20:38:17.356Z,99736.78
2022-12-08T20:40:47.299Z,99728.44
2022-12-08T20:43:14.796Z,99747.47
2022-12-08T20:45:43.078Z,99746.25
2022-12-08T20:48:10.984Z,99752.81
2022-12-08T20:50:38.942Z,99754.50
2022-12-08T20:53:06.801Z,99756.16
2022-12-08T20:55:35.735Z,99752.81
2022-12-08T20:58:03.779Z,99755.59
2022-12-08T21:00:31.950Z,99756.75
2022-12-08T21:02:59.712Z,99758.75
2022-12-08T21:05:27.913Z,99755.72
2022-12-08T21:07:56.219Z,99756.53
2022-12-08T21:10:24.319Z,99754.50
2022-12-08T21:12:51.958Z,99755.94
2022-12-08T21:15:19.887Z,99769.19
2022-12-08T21:17:47.718Z,99770.75
2022-12-08T21:20:15.956Z,99773.41
2022-12-08T21:22:43.796Z,99771.53
2022-12-08T21:25:11.972Z,99767.63
2022-12-08T21:27:40.317Z,99766.84
2022-12-08T21:30:10.278Z,99770.63
2022-12-08T21:32:39.742Z,99778.31
2022-12-08T21:35:08.344Z,99779.22
2022-12-08T21:37:36.159Z,99788.34
2022-12-08T21:40:07.701Z,99779.22
2022-12-08T21:42:45.052Z,99767.31
2022-12-08T21:45:17.671Z,99753.84
2022-12-08T21:47:47.260Z,99767.53
2022-12-08T21:50:16.153Z,99771.41
2022-12-08T21:52:46.863Z,99766.84
2022-12-08T21:55:19.156Z,99756.16
2022-12-08T21:57:47.494Z,99751.16
2022-12-08T22:00:17.734Z,99751.84
2022-12-08T22:02:46.581Z,99763.16
2022-12-08T22:05:15.022Z,99768.41
2022-12-08T22:07:42.804Z,99761.94
2022-12-08T22:10:12.209Z,99753.47
2022-12-08T22:12:41.107Z,99755.69
2022-12-08T22:15:11.464Z,99755.69
2022-12-08T22:17:41.735Z,99761.03
2022-12-08T22:20:14.981Z,99758.69
2022-12-08T22:22:43.146Z,99775.16
2022-12-08T22:25:12.063Z,99761.56
2022-12-08T22:27:41.565Z,99762.44
2022-12-08T22:30:10.850Z,99764.66
2022-12-08T22:32:39.319Z,99762.44
2022-12-08T22:35:07.856Z,99758.22
2022-12-08T22:37:35.645Z,99755.66
2022-12-08T22:40:04.827Z,99745.88
2022-12-08T22:42:33.068Z,99739.88
2022-12-08T22:45:01.449Z,99737.75
2022-12-08T22:47:29.134Z,99746.69
2022-12-08T22:49:57.191Z,99738.69
2022-12-08T22:52:24.920Z,99736.47
2022-12-08T22:54:53.059Z,99733.56
2022-12-08T22:57:20.728Z,99719.34
2022-12-08T22:59:48.661Z,99731.00
2022-12-08T23:02:16.281Z,99741.59
2022-12-08T23:04:46.553Z,99747.03
2022-12-08T23:07:14.484Z,99753.84
2022-12-08T23:09:42.727Z,99758.50
2022-12-08T23:12:10.601Z,99758.28
2022-12-08T23:14:38.611Z,99756.94
2022-12-08T23:17:06.291Z,99755.47
2022-12-08T23:19:37.617Z,99748.00
2022-12-08T23:22:05.482Z,99751.97
2022-12-08T23:24:34.015Z,99743.53
2022-12-08T23:27:02.317Z,99743.66
2022-12-08T23:29:30.766Z,99731.53
2022-12-08T23:31:58.584Z,99727.09
2022-12-08T23:34:26.833Z,99730.66
2022-12-08T23:36:54.774Z,99724.19
2022-12-08T23:39:24.887Z,99727.19
2022-12-08T23:41:52.823Z,99722.19
2022-12-08T23:44:20.858Z,99728.34
2022-12-08T23:46:48.634Z,99725.78
2022-12-08T23:49:16.959Z,99724.31
2022-12-08T23:51:44.803Z,99719.41
2022-12-08T23:54:13.033Z,99726.00
2022-12-08T23:56:40.837Z,99723.78
2022-12-08T23:59:09.196Z,99718.44
